Time;durP1;ratioP1;P1;durP2;ratioP2;P2;SDS_P1;SDS_P2;PMS_P1;PMS_P2;Temp;Humidity;BMP_temperature;BMP_pressure;BME280_temperature;BME280_humidity;BME280_pressure;Samples;Min_cycle;Max_cycle;Signal;HPM_P1;HPM_P2
2021/06/28 00:01:00;;;;;;;12.13;9.68;;;;;;;21.64;68.33;99080.47;5001935;28;20047;-81
2021/06/28 00:03:29;;;;;;;14.20;10.32;;;;;;;21.43;68.28;99041.19;5019189;28;20037;-80
2021/06/28 00:05:55;;;;;;;12.85;10.15;;;;;;;21.61;68.53;99073.59;5035119;28;20048;-78
2021/06/28 00:08:21;;;;;;;11.85;10.30;;;;;;;21.56;68.16;99059.78;5038130;28;20077;-77
2021/06/28 00:10:47;;;;;;;14.32;11.00;;;;;;;21.61;68.47;99067.47;5036893;28;20048;-81
2021/06/28 00:13:13;;;;;;;12.77;10.32;;;;;;;21.58;68.43;99054.38;5035353;28;20091;-76
2021/06/28 00:15:39;;;;;;;13.45;10.43;;;;;;;21.57;68.59;99052.69;5037169;28;20041;-80
2021/06/28 00:18:11;;;;;;;13.73;9.98;;;;;;;21.67;68.31;99059.94;5035807;28;20163;-81
2021/06/28 00:20:37;;;;;;;12.38;9.77;;;;;;;21.63;68.58;99039.06;5036272;28;20046;-80
2021/06/28 00:23:03;;;;;;;11.63;9.80;;;;;;;21.69;68.40;99051.88;5035845;28;20041;-77
2021/06/28 00:25:29;;;;;;;12.23;9.20;;;;;;;21.61;68.60;99043.63;5034536;28;20124;-76
2021/06/28 00:27:56;;;;;;;11.73;9.35;;;;;;;21.71;68.52;99057.94;5036054;28;20175;-79
2021/06/28 00:30:23;;;;;;;14.68;10.52;;;;;;;21.60;68.45;99040.09;5034654;28;20052;-78
2021/06/28 00:32:50;;;;;;;14.13;9.98;;;;;;;21.67;68.25;99053.78;5018747;28;20114;-80
2021/06/28 00:35:18;;;;;;;14.57;9.75;;;;;;;21.66;68.63;99052.97;5036894;28;20048;-80
2021/06/28 00:37:46;;;;;;;13.95;9.93;;;;;;;21.72;68.61;99062.28;5018718;28;20509;-78
2021/06/28 00:40:14;;;;;;;14.68;10.38;;;;;;;21.70;68.22;99055.41;5038353;28;20107;-80
2021/06/28 00:42:40;;;;;;;12.43;9.88;;;;;;;21.64;68.67;99048.69;5041436;28;20041;-79
2021/06/28 00:45:16;;;;;;;16.40;10.07;;;;;;;21.70;68.34;99069.47;5041003;28;20113;-78
2021/06/28 00:47:41;;;;;;;13.50;10.13;;;;;;;21.64;68.46;99060.16;5036330;28;20128;-79
2021/06/28 00:50:08;;;;;;;11.35;9.63;;;;;;;21.59;68.57;99048.97;5034662;28;20081;-78
2021/06/28 00:52:34;;;;;;;10.88;9.63;;;;;;;21.70;68.76;99066.00;5035674;28;20053;-79
2021/06/28 00:55:00;;;;;;;11.27;9.00;;;;;;;21.69;68.52;99078.38;5033575;28;20049;-78
2021/06/28 00:57:27;;;;;;;13.32;10.55;;;;;;;21.82;68.41;99096.94;5001169;28;20041;-78
2021/06/28 00:59:53;;;;;;;14.45;11.43;;;;;;;21.76;68.24;99103.50;5017535;28;20048;-80
2021/06/28 01:02:18;;;;;;;14.00;11.48;;;;;;;21.75;68.42;99108.88;5036124;28;20040;-77
2021/06/28 01:04:44;;;;;;;14.30;11.23;;;;;;;21.73;68.45;99093.09;5036809;28;20041;-79
2021/06/28 01:07:10;;;;;;;11.95;10.32;;;;;;;21.76;68.76;99089.38;5019741;28;20033;-78
2021/06/28 01:09:36;;;;;;;12.63;10.18;;;;;;;21.77;68.59;99067.25;5035872;28;20475;-80
2021/06/28 01:12:04;;;;;;;13.20;10.95;;;;;;;21.93;68.51;99083.81;5036078;28;20421;-80
2021/06/28 01:14:31;;;;;;;14.07;10.73;;;;;;;21.96;68.56;99074.81;4990885;28;20038;-79
2021/06/28 01:16:58;;;;;;;14.98;11.10;;;;;;;22.09;68.46;99078.31;5015821;28;20041;-79
2021/06/28 01:19:29;;;;;;;11.02;10.00;;;;;;;21.99;68.48;99056.06;5015255;28;20137;-80
2021/06/28 01:21:58;;;;;;;13.90;10.80;;;;;;;22.10;68.26;99071.22;5018203;28;20057;-81
2021/06/28 01:24:25;;;;;;;15.15;12.05;;;;;;;22.02;68.32;99062.94;5015129;28;20050;-79
2021/06/28 01:26:51;;;;;;;12.25;10.68;;;;;;;21.97;68.27;99076.50;5016639;28;20046;-79
2021/06/28 01:29:18;;;;;;;12.18;10.88;;;;;;;22.02;68.35;99085.00;5009138;28;20072;-79
2021/06/28 01:31:44;;;;;;;16.65;10.95;;;;;;;21.99;68.22;99079.03;5026174;28;20136;-77
2021/06/28 01:34:10;;;;;;;15.98;11.65;;;;;;;22.10;68.34;99079.19;5031486;28;20053;-76
2021/06/28 01:36:42;;;;;;;12.82;10.15;;;;;;;22.17;68.06;99079.59;5033952;28;20525;-76
2021/06/28 01:39:08;;;;;;;13.98;12.07;;;;;;;22.08;67.92;99051.94;5016137;28;20072;-77
2021/06/28 01:41:34;;;;;;;19.35;12.13;;;;;;;22.12;68.13;99048.13;5032484;28;20033;-75
2021/06/28 01:44:00;;;;;;;18.33;11.20;;;;;;;22.09;68.26;99024.50;5034955;28;20099;-77
2021/06/28 01:46:27;;;;;;;21.63;12.13;;;;;;;22.05;67.95;99033.63;5023610;28;20045;-77
2021/06/28 01:48:53;;;;;;;12.73;10.27;;;;;;;22.11;68.15;99030.53;5035717;28;20045;-76
2021/06/28 01:51:18;;;;;;;14.80;11.60;;;;;;;22.22;67.95;99024.50;5045743;28;20053;-77
2021/06/28 01:53:44;;;;;;;13.90;11.50;;;;;;;22.25;67.93;99019.00;5042211;28;20495;-78
2021/06/28 01:56:11;;;;;;;16.23;12.35;;;;;;;22.30;67.76;99018.66;5038152;28;20033;-80
2021/06/28 01:58:37;;;;;;;16.50;12.45;;;;;;;22.32;67.82;99012.28;5034682;28;20046;-80
2021/06/28 02:01:04;;;;;;;13.98;12.15;;;;;;;22.37;67.66;99025.25;5036874;28;20059;-79
2021/06/28 02:03:37;;;;;;;14.65;12.73;;;;;;;22.35;67.82;99008.59;5034342;28;20041;-79
2021/06/28 02:06:03;;;;;;;15.43;12.82;;;;;;;22.32;67.65;99006.16;5034409;28;20049;-79
2021/06/28 02:08:32;;;;;;;16.02;12.60;;;;;;;22.24;67.76;98981.03;5016213;28;20041;-79
2021/06/28 02:11:00;;;;;;;21.90;13.82;;;;;;;22.40;67.70;98991.41;5032756;28;20042;-80
2021/06/28 02:13:31;;;;;;;20.20;13.20;;;;;;;22.39;67.77;98988.88;5031532;28;20561;-80
2021/06/28 02:15:58;;;;;;;17.65;12.98;;;;;;;22.54;67.80;98995.75;5032937;28;20037;-78
2021/06/28 02:18:25;;;;;;;15.68;11.90;;;;;;;22.61;67.62;98979.44;5031920;28;20048;-78
2021/06/28 02:20:54;;;;;;;17.52;13.40;;;;;;;22.75;67.58;98987.22;5031963;28;20422;-78
2021/06/28 02:23:38;;;;;;;17.65;14.48;;;;;;;22.85;67.00;98974.13;5000036;28;20144;-79
2021/06/28 02:26:09;;;;;;;18.38;14.23;;;;;;;22.65;67.20;98933.16;5016520;28;20512;-79
2021/06/28 02:28:38;;;;;;;19.33;14.27;;;;;;;22.75;66.86;98939.50;5033667;28;20059;-79
2021/06/28 02:31:06;;;;;;;17.42;14.38;;;;;;;22.84;67.32;98946.75;5033594;28;20041;-76
2021/06/28 02:33:33;;;;;;;15.05;13.13;;;;;;;22.80;67.21;98932.06;5036505;28;20045;-80
2021/06/28 02:35:59;;;;;;;16.83;12.15;;;;;;;22.91;67.09;98927.75;5045141;28;20048;-78
2021/06/28 02:38:26;;;;;;;14.00;11.43;;;;;;;23.09;67.22;98930.84;5049374;28;20048;-79
2021/06/28 02:40:52;;;;;;;16.95;12.95;;;;;;;23.13;66.70;98932.31;5052363;28;20053;-77
2021/06/28 02:43:39;;;;;;;14.88;12.80;;;;;;;23.18;66.66;98935.44;4979893;28;20049;-78
2021/06/28 02:46:05;;;;;;;17.35;13.60;;;;;;;22.99;66.54;98885.59;5044764;28;20049;-77
2021/06/28 02:48:31;;;;;;;18.15;13.35;;;;;;;23.33;66.52;98930.81;5048397;28;20048;-77
2021/06/28 02:50:57;;;;;;;14.85;13.23;;;;;;;23.42;66.18;98931.91;5032658;28;20093;-78
2021/06/28 02:53:23;;;;;;;22.38;14.13;;;;;;;23.42;66.10;98929.28;5029695;28;20061;-77
2021/06/28 02:55:51;;;;;;;21.10;14.70;;;;;;;23.60;66.22;98941.16;5042862;28;20163;-79
2021/06/28 02:58:19;;;;;;;19.67;16.35;;;;;;;23.75;65.69;98933.78;5041200;28;20056;-79
2021/06/28 03:00:46;;;;;;;28.83;18.40;;;;;;;23.89;65.36;98929.22;5044695;28;20041;-76
2021/06/28 03:03:24;;;;;;;25.50;19.05;;;;;;;24.00;65.03;98910.66;5122707;27;20424;-77
2021/06/28 03:06:01;;;;;;;21.10;16.20;;;;;;;23.95;64.36;98875.59;5122704;27;20133;-76
2021/06/28 03:08:37;;;;;;;19.08;15.43;;;;;;;24.18;64.24;98891.56;5065467;27;20499;-77
2021/06/28 03:11:18;;;;;;;21.30;15.18;;;;;;;24.31;64.12;98908.22;5124168;27;20425;-78
2021/06/28 03:13:55;;;;;;;17.45;15.35;;;;;;;24.42;63.74;98909.16;5073893;28;20418;-77
2021/06/28 03:16:32;;;;;;;20.58;15.68;;;;;;;24.60;63.10;98907.69;5085876;28;20138;-77
2021/06/28 03:19:08;;;;;;;23.20;15.75;;;;;;;24.77;62.91;98900.16;5124702;27;20137;-78
2021/06/28 03:21:45;;;;;;;22.33;15.35;;;;;;;24.91;62.57;98875.91;5122965;27;20618;-79
2021/06/28 03:24:22;;;;;;;18.30;13.67;;;;;;;25.03;62.13;98894.50;5054838;27;1486252;-79
2021/06/28 03:27:01;;;;;;;16.27;12.85;;;;;;;25.06;62.06;98883.56;5119948;27;20407;-79
2021/06/28 03:29:38;;;;;;;16.52;12.70;;;;;;;25.05;61.39;98877.41;5105784;27;20413;-79
2021/06/28 03:32:15;;;;;;;17.77;12.80;;;;;;;24.89;61.05;98855.75;5141105;27;20132;-78
2021/06/28 03:34:51;;;;;;;15.38;12.80;;;;;;;25.05;61.26;98884.53;5093968;27;1395711;-79
2021/06/28 03:37:29;;;;;;;16.35;11.90;;;;;;;25.04;61.20;98882.88;5127605;27;20388;-77
2021/06/28 03:40:11;;;;;;;16.08;12.60;;;;;;;25.10;61.26;98893.84;5093054;28;20145;-79
2021/06/28 03:42:52;;;;;;;14.95;12.73;;;;;;;25.17;60.81;98893.31;5113402;27;20456;-78
2021/06/28 03:45:31;;;;;;;14.93;11.80;;;;;;;25.24;60.74;98871.41;5133826;27;20392;-79
2021/06/28 03:48:17;;;;;;;19.00;12.60;;;;;;;24.96;60.45;98780.59;5143646;27;20415;-79
2021/06/28 03:51:19;;;;;;;16.77;12.32;;;;;;;25.70;59.47;98847.13;5153937;27;20430;-78
2021/06/28 03:53:58;;;;;;;14.05;11.77;;;;;;;25.95;59.33;98855.63;5113111;28;20419;-79
2021/06/28 03:56:35;;;;;;;16.60;11.88;;;;;;;25.50;58.74;98745.00;5133600;27;21017;-76
2021/06/28 03:59:14;;;;;;;14.80;12.93;;;;;;;26.15;58.52;98830.72;5075328;28;20414;-79
2021/06/28 04:01:54;;;;;;;14.35;11.90;;;;;;;26.25;57.87;98828.09;5133475;27;20416;-78
2021/06/28 04:04:31;;;;;;;17.00;13.20;;;;;;;26.33;57.59;98846.06;5133331;27;20402;-78
2021/06/28 04:07:08;;;;;;;15.90;13.30;;;;;;;26.28;57.20;98845.66;5112966;27;20116;-78
2021/06/28 04:09:48;;;;;;;16.05;13.73;;;;;;;26.15;57.80;98824.56;5107318;27;20410;-79
2021/06/28 04:12:26;;;;;;;14.77;13.18;;;;;;;26.33;57.92;98821.22;5111033;27;20415;-79
2021/06/28 04:15:06;;;;;;;17.05;12.65;;;;;;;26.45;57.19;98809.47;5068521;28;20493;-80
2021/06/28 04:17:46;;;;;;;19.23;13.30;;;;;;;26.35;56.65;98766.81;5102756;27;1437629;-78
2021/06/28 04:20:25;;;;;;;15.57;13.50;;;;;;;26.90;56.63;98830.25;5109358;27;20412;-77
2021/06/28 04:23:02;;;;;;;17.92;12.40;;;;;;;27.01;56.45;98799.03;5110179;27;20404;-79
2021/06/28 04:25:41;;;;;;;19.05;12.73;;;;;;;27.23;55.95;98821.91;5150875;27;20914;-80
2021/06/28 04:28:20;;;;;;;17.15;12.48;;;;;;;27.36;55.78;98819.75;5069691;28;20403;-80
2021/06/28 04:30:57;;;;;;;16.65;12.60;;;;;;;27.59;55.21;98808.72;5109966;27;20415;-78
2021/06/28 04:33:37;;;;;;;17.40;13.07;;;;;;;27.79;54.68;98804.16;5110107;27;20411;-78
2021/06/28 04:36:15;;;;;;;15.43;12.57;;;;;;;27.97;53.87;98800.66;5134575;27;20410;-78
2021/06/28 04:38:52;;;;;;;15.30;13.65;;;;;;;27.90;53.86;98802.25;5048574;28;20393;-78
2021/06/28 04:41:30;;;;;;;17.88;12.85;;;;;;;27.86;54.36;98809.72;5090086;27;20175;-79
2021/06/28 04:44:08;;;;;;;18.45;13.45;;;;;;;27.99;53.36;98788.00;5110238;27;20125;-78
2021/06/28 04:46:46;;;;;;;14.35;12.82;;;;;;;28.29;52.67;98809.22;5116412;27;20189;-80
2021/06/28 04:49:25;;;;;;;17.45;15.00;;;;;;;27.88;52.49;98810.44;5099806;27;20137;-81
2021/06/28 04:52:04;;;;;;;18.15;14.02;;;;;;;27.65;52.66;98801.94;5092166;27;20130;-81
2021/06/28 04:54:48;;;;;;;16.13;13.20;;;;;;;27.46;53.76;98763.66;5109556;27;20418;-78
2021/06/28 04:57:26;;;;;;;18.00;14.38;;;;;;;28.14;53.74;98796.34;5161766;27;20150;-78
2021/06/28 05:00:06;;;;;;;17.55;14.10;;;;;;;28.17;53.22;98781.84;5111655;27;20182;-80
2021/06/28 05:02:56;;;;;;;18.08;13.43;;;;;;;28.54;52.89;98797.75;5110673;27;20430;-80
2021/06/28 05:05:33;;;;;;;16.88;14.88;;;;;;;28.55;52.34;98804.78;5090035;28;20134;-79
2021/06/28 05:08:12;;;;;;;18.77;13.68;;;;;;;28.89;52.30;98831.84;5105407;27;1469762;-78
2021/06/28 05:10:53;;;;;;;15.73;14.18;;;;;;;28.97;51.10;98830.06;5110187;27;20404;-79
2021/06/28 05:13:31;;;;;;;18.08;13.98;;;;;;;29.28;50.81;98810.00;5083957;28;20481;-80
2021/06/28 05:16:10;;;;;;;17.45;15.52;;;;;;;29.35;50.06;98810.25;5111409;27;20132;-79
2021/06/28 05:18:48;;;;;;;18.27;14.75;;;;;;;29.54;50.76;98806.50;5093390;27;20141;-81
2021/06/28 05:21:26;;;;;;;18.77;14.73;;;;;;;29.96;50.15;98804.81;5093531;27;20538;-80
2021/06/28 05:24:05;;;;;;;18.10;16.05;;;;;;;30.11;48.77;98799.72;5114387;27;20136;-79
2021/06/28 05:26:43;;;;;;;17.33;15.35;;;;;;;30.25;48.64;98787.47;5115947;27;20178;-83
2021/06/28 05:29:21;;;;;;;21.75;15.82;;;;;;;30.69;47.63;98805.16;5115420;27;20534;-79
2021/06/28 05:31:59;;;;;;;20.10;15.80;;;;;;;30.72;47.88;98802.13;5119207;27;20125;-77
2021/06/28 05:34:38;;;;;;;17.80;15.85;;;;;;;30.72;47.14;98791.41;5060730;28;20414;-84
2021/06/28 05:37:18;;;;;;;18.02;15.13;;;;;;;30.84;47.03;98808.84;5071448;28;20418;-78
2021/06/28 05:39:58;;;;;;;17.10;15.13;;;;;;;30.80;46.35;98796.75;5092473;27;20971;-80
2021/06/28 05:42:35;;;;;;;19.88;15.98;;;;;;;30.89;46.68;98827.97;5104748;27;1410519;-80
2021/06/28 05:45:14;;;;;;;18.13;16.00;;;;;;;31.04;46.75;98819.22;5113244;27;20392;-78
2021/06/28 05:47:53;;;;;;;22.08;15.63;;;;;;;31.25;46.24;98819.53;5092210;27;20817;-79
2021/06/28 05:50:32;;;;;;;19.33;14.55;;;;;;;31.64;45.90;98809.03;5091541;27;20360;-79
2021/06/28 05:53:11;;;;;;;14.55;13.05;;;;;;;32.57;44.97;98815.44;5071554;27;20663;-79
2021/06/28 05:55:49;;;;;;;17.05;14.38;;;;;;;33.16;43.41;98821.19;5071211;28;20403;-81
2021/06/28 05:58:29;;;;;;;17.02;15.40;;;;;;;33.51;42.29;98818.78;5100692;27;20484;-78
2021/06/28 06:01:09;;;;;;;16.20;14.45;;;;;;;34.41;42.05;98818.63;5130816;27;20417;-78
2021/06/28 06:03:51;;;;;;;18.13;15.60;;;;;;;36.03;39.08;98821.47;5008041;28;20422;-79
2021/06/28 06:06:29;;;;;;;14.82;13.15;;;;;;;37.75;36.97;98816.47;5071733;28;20433;-78
2021/06/28 06:09:06;;;;;;;16.08;14.07;;;;;;;38.13;35.45;98815.69;5091859;28;20137;-78
2021/06/28 06:11:43;;;;;;;16.17;14.48;;;;;;;39.08;33.71;98828.63;5072832;28;20138;-82
2021/06/28 06:14:20;;;;;;;14.75;13.07;;;;;;;40.15;32.36;98816.50;5082717;27;20150;-78
2021/06/28 06:16:57;;;;;;;15.48;13.80;;;;;;;40.04;31.42;98814.59;5114045;27;20418;-81
2021/06/28 06:19:37;;;;;;;15.50;13.55;;;;;;;39.79;31.77;98831.03;5072546;28;20797;-79
2021/06/28 06:22:15;;;;;;;14.98;13.20;;;;;;;40.34;30.62;98791.97;5133840;27;20151;-82
2021/06/28 06:24:53;;;;;;;15.10;13.52;;;;;;;41.44;29.36;98828.91;5153964;27;20131;-82
2021/06/28 06:27:31;;;;;;;17.15;14.90;;;;;;;41.92;27.98;98814.09;5112749;27;20170;-79
2021/06/28 06:30:11;;;;;;;14.27;12.88;;;;;;;42.84;27.50;98827.78;5146460;27;20411;-80
2021/06/28 06:32:50;;;;;;;16.52;13.00;;;;;;;43.76;26.40;98815.66;5154979;27;20409;-83
2021/06/28 06:35:29;;;;;;;16.05;14.50;;;;;;;43.56;25.99;98822.50;5115146;27;20419;-80
2021/06/28 06:38:06;;;;;;;19.95;16.38;;;;;;;42.94;25.82;98816.16;5115770;27;20408;-81
2021/06/28 06:40:45;;;;;;;14.73;13.27;;;;;;;43.97;25.10;98804.91;5074251;28;20146;-80
2021/06/28 06:43:22;;;;;;;16.08;14.55;;;;;;;45.68;23.79;98824.34;5112244;27;20434;-80
2021/06/28 06:46:01;;;;;;;15.15;13.48;;;;;;;46.67;22.40;98803.34;5071101;28;20417;-82
2021/06/28 06:48:40;;;;;;;15.07;13.55;;;;;;;47.29;21.87;98825.28;5091267;27;20453;-77
2021/06/28 06:51:19;;;;;;;15.32;14.07;;;;;;;47.18;21.71;98827.22;5122627;27;20179;-78
2021/06/28 06:53:56;;;;;;;17.77;16.02;;;;;;;46.15;21.89;98828.06;5091557;28;20528;-82
2021/06/28 06:56:34;;;;;;;17.00;15.27;;;;;;;45.52;21.79;98819.84;5112008;27;20494;-81
2021/06/28 06:59:10;;;;;;;15.90;14.48;;;;;;;46.15;22.11;98814.31;5052111;28;20499;-80
2021/06/28 07:01:47;;;;;;;16.15;14.68;;;;;;;46.22;21.19;98824.22;5112422;27;20137;-77
2021/06/28 07:04:24;;;;;;;15.13;13.63;;;;;;;46.54;21.08;98836.88;5150556;27;20459;-82
2021/06/28 07:07:04;;;;;;;16.05;14.75;;;;;;;46.71;20.70;98820.94;5111149;27;20128;-78
2021/06/28 07:09:43;;;;;;;15.18;13.75;;;;;;;45.88;22.28;98834.56;5070723;28;20418;-80
2021/06/28 07:12:23;;;;;;;17.73;15.25;;;;;;;45.71;21.30;98837.50;5183915;27;20422;-82
2021/06/28 07:15:01;;;;;;;16.65;14.93;;;;;;;46.72;20.10;98833.56;5091692;27;20130;-81
2021/06/28 07:17:41;;;;;;;14.30;12.88;;;;;;;47.22;21.00;98833.00;5150322;27;20662;-80
2021/06/28 07:20:21;;;;;;;16.58;14.88;;;;;;;47.89;19.62;98832.72;5069605;28;20814;-78
2021/06/28 07:23:00;;;;;;;17.52;15.23;;;;;;;48.09;18.98;98836.47;5092873;27;20405;-80
2021/06/28 07:25:39;;;;;;;16.10;14.75;;;;;;;47.41;19.85;98841.47;5094123;27;20457;-80
2021/06/28 07:28:18;;;;;;;17.13;15.15;;;;;;;46.26;20.56;98823.38;5130873;27;20901;-79
2021/06/28 07:30:57;;;;;;;15.68;13.93;;;;;;;46.36;21.77;98814.31;5070861;28;20429;-79
2021/06/28 07:33:39;;;;;;;16.20;13.32;;;;;;;46.80;20.83;98848.69;5110330;27;20803;-80
2021/06/28 07:36:19;;;;;;;15.68;14.27;;;;;;;45.88;21.81;98823.56;5109939;27;20427;-78
2021/06/28 07:39:02;;;;;;;16.25;14.63;;;;;;;45.74;21.28;98874.63;5110689;27;20362;-79
2021/06/28 07:41:46;;;;;;;16.02;14.45;;;;;;;45.42;21.62;98851.66;5152705;27;20421;-78
2021/06/28 07:44:25;;;;;;;16.13;14.45;;;;;;;45.17;21.71;98877.00;5094151;27;20401;-81
2021/06/28 07:47:06;;;;;;;14.70;13.25;;;;;;;44.48;23.15;98854.78;5070727;28;20420;-80
2021/06/28 07:49:47;;;;;;;19.00;15.18;;;;;;;43.56;23.44;98830.72;5093754;27;20531;-81
2021/06/28 07:52:27;;;;;;;16.35;14.02;;;;;;;43.65;23.87;98855.75;5132158;27;20135;-81
2021/06/28 07:55:10;;;;;;;15.55;14.07;;;;;;;43.78;23.75;98852.66;5071121;28;20406;-78
2021/06/28 07:57:48;;;;;;;16.92;13.93;;;;;;;43.52;23.39;98801.38;5065063;28;20922;-83
2021/06/28 08:00:26;;;;;;;15.20;13.73;;;;;;;43.59;24.41;98838.41;5110998;27;20411;-78
2021/06/28 08:03:05;;;;;;;14.82;12.90;;;;;;;44.39;23.56;98846.19;5070601;28;20145;-79
2021/06/28 08:05:42;;;;;;;13.98;12.68;;;;;;;45.56;23.02;98842.94;5072447;28;20418;-80
2021/06/28 08:08:19;;;;;;;16.67;13.15;;;;;;;46.48;21.88;98844.31;5132614;27;20500;-80
2021/06/28 08:10:55;;;;;;;15.70;14.38;;;;;;;45.86;22.02;98825.75;5066772;28;20136;-82
2021/06/28 08:13:39;;;;;;;14.15;12.73;;;;;;;45.85;22.20;98837.84;5130252;27;20403;-79
2021/06/28 08:16:16;;;;;;;15.23;12.90;;;;;;;46.22;22.15;98822.28;5093005;28;20418;-78
2021/06/28 08:18:54;;;;;;;16.75;14.65;;;;;;;45.62;21.92;98819.91;5092130;27;20409;-84
2021/06/28 08:21:35;;;;;;;21.90;14.98;;;;;;;46.25;21.76;98819.00;5111885;27;20408;-79
2021/06/28 08:24:15;;;;;;;14.82;13.20;;;;;;;46.33;21.00;98801.13;5112720;27;20403;-78
2021/06/28 08:26:53;;;;;;;15.95;14.18;;;;;;;44.92;21.72;98796.19;5112526;27;20752;-82
2021/06/28 08:29:29;;;;;;;16.63;14.95;;;;;;;42.80;24.00;98793.00;5070345;28;20138;-79
2021/06/28 08:32:07;;;;;;;20.90;14.35;;;;;;;42.08;25.51;98740.66;5131243;27;20645;-82
2021/06/28 08:34:44;;;;;;;14.73;13.32;;;;;;;43.35;25.98;98772.19;5111325;27;20412;-81
2021/06/28 08:37:21;;;;;;;15.60;13.10;;;;;;;45.70;23.08;98737.00;5111254;27;20147;-82
2021/06/28 08:39:57;;;;;;;13.95;12.85;;;;;;;46.62;21.46;98743.66;5110970;27;20236;-82
2021/06/28 08:42:34;;;;;;;15.93;13.52;;;;;;;45.06;23.05;98735.38;5153127;27;20158;-82
2021/06/28 08:45:12;;;;;;;15.35;13.82;;;;;;;43.91;23.83;98752.00;5111336;27;20132;-81
2021/06/28 08:47:49;;;;;;;14.38;12.90;;;;;;;44.52;23.77;98748.19;5107132;27;20409;-81
2021/06/28 08:50:25;;;;;;;18.67;12.75;;;;;;;43.32;24.21;98748.06;5117326;27;20143;-78
2021/06/28 08:53:03;;;;;;;13.50;12.15;;;;;;;41.84;25.91;98724.38;5112558;27;20144;-79
2021/06/28 08:55:40;;;;;;;13.80;12.25;;;;;;;40.58;26.44;98715.72;5112755;27;20404;-80
2021/06/28 08:58:19;;;;;;;14.13;12.60;;;;;;;38.96;28.52;98719.78;5083140;28;20399;-80
2021/06/28 09:00:59;;;;;;;14.98;13.48;;;;;;;37.54;30.47;98698.25;5075343;28;20418;-80
2021/06/28 09:03:37;;;;;;;20.95;13.85;;;;;;;36.67;31.55;98685.75;5095798;27;20420;-80
2021/06/28 09:06:23;;;;;;;15.63;13.75;;;;;;;36.21;33.16;98703.66;5126736;27;20412;-79
2021/06/28 09:09:17;;;;;;;23.13;15.43;;;;;;;35.21;35.43;98709.56;5113811;27;20412;-82
2021/06/28 09:11:54;;;;;;;28.27;15.50;;;;;;;34.09;38.72;98712.88;5096340;27;20402;-79
2021/06/28 09:14:48;;;;;;;21.90;15.82;;;;;;;33.07;41.94;98655.25;5099615;27;20122;-78
2021/06/28 09:17:25;;;;;;;18.13;16.13;;;;;;;33.12;42.67;98709.41;5116068;27;20420;-83
2021/06/28 09:20:18;;;;;;;15.75;14.05;;;;;;;32.56;44.22;98695.31;5177199;27;20174;-78
2021/06/28 09:22:55;;;;;;;20.05;15.70;;;;;;;32.23;44.06;98713.56;5114234;27;20411;-80
2021/06/28 09:25:30;;;;;;;22.98;16.05;;;;;;;31.79;45.01;98731.19;5115820;28;20039;-82
2021/06/28 09:28:07;;;;;;;21.00;16.92;;;;;;;31.18;47.01;98766.69;5111288;27;20419;-78
2021/06/28 09:30:51;;;;;;;21.98;17.90;;;;;;;30.63;48.60;98798.63;5111604;27;20607;-81
2021/06/28 09:33:31;;;;;;;31.90;21.65;;;;;;;28.92;51.94;98835.03;5111974;27;20408;-82
2021/06/28 09:36:20;;;;;;;20.73;17.75;;;;;;;27.01;56.85;98863.97;5131182;27;20399;-80
2021/06/28 09:38:58;;;;;;;19.38;15.02;;;;;;;25.93;58.56;98905.56;5110762;27;20475;-79
2021/06/28 09:41:34;;;;;;;19.90;14.23;;;;;;;24.64;61.16;98959.63;5132238;27;20142;-79
2021/06/28 09:44:12;;;;;;;17.65;10.20;;;;;;;23.56;63.45;98965.38;5071133;28;20134;-82
2021/06/28 09:47:28;;;;;;;29.50;16.23;;;;;;;22.59;65.17;98960.97;5113834;27;20404;-85
2021/06/28 09:50:13;;;;;;;25.45;9.80;;;;;;;21.66;68.55;98977.97;5076200;28;20422;-85
2021/06/28 09:53:39;;;;;;;34.05;16.88;;;;;;;21.04;72.86;98893.00;5120478;27;20497;-84
2021/06/28 09:56:41;;;;;;;33.35;18.90;;;;;;;21.04;74.69;98882.41;5158139;27;20204;-84
2021/06/28 09:59:39;;;;;;;51.97;13.82;;;;;;;21.04;75.91;98845.41;5073670;27;20416;-84
2021/06/28 10:02:31;;;;;;;23.20;13.18;;;;;;;20.60;76.97;98781.31;5093378;27;20426;-80
2021/06/28 10:05:32;;;;;;;19.45;13.38;;;;;;;20.71;77.69;98793.78;5153056;27;20526;-83
2021/06/28 10:08:30;;;;;;;18.27;14.27;;;;;;;20.74;78.45;98805.97;5091381;27;20513;-82
2021/06/28 10:11:30;;;;;;;34.53;21.13;;;;;;;20.79;78.71;98869.13;5133225;27;20416;-78
2021/06/28 10:14:25;;;;;;;26.55;15.95;;;;;;;20.77;79.81;98906.22;5196191;27;20576;-81
2021/06/28 10:17:44;;;;;;;18.33;12.38;;;;;;;20.82;80.07;98937.66;5197038;27;20417;-81
2021/06/28 10:20:42;;;;;;;16.15;13.13;;;;;;;20.93;80.93;98943.09;5195958;27;20422;-81
2021/06/28 10:23:36;;;;;;;23.95;15.60;;;;;;;20.90;80.75;98964.44;5093218;27;20460;-80
2021/06/28 10:26:28;;;;;;;34.28;21.52;;;;;;;20.90;81.30;98916.84;5105302;27;20474;-83
2021/06/28 10:29:25;;;;;;;25.00;17.10;;;;;;;21.03;81.51;98920.38;5197257;27;20417;-79
2021/06/28 10:32:22;;;;;;;22.75;14.23;;;;;;;20.76;81.44;98873.66;5197827;27;20417;-82
2021/06/28 10:35:15;;;;;;;38.00;23.75;;;;;;;20.83;81.79;98878.56;5093628;27;20839;-86
2021/06/28 10:38:16;;;;;;;43.42;26.30;;;;;;;21.10;82.71;98898.81;5100942;27;20917;-80
2021/06/28 10:41:34;;;;;;;37.03;24.88;;;;;;;21.32;83.32;98906.16;5108199;27;20485;-81
2021/06/28 10:44:26;;;;;;;59.85;29.48;;;;;;;21.41;83.41;98887.00;5071185;27;20459;-81
2021/06/28 10:47:11;;;;;;;63.33;31.80;;;;;;;21.60;83.45;98901.63;5070013;27;20420;-79
2021/06/28 10:49:52;;;;;;;54.00;30.20;;;;;;;21.59;83.80;98908.72;5051764;28;20400;-81
2021/06/28 10:52:38;;;;;;;40.05;24.38;;;;;;;21.74;84.03;98917.44;5050303;28;20417;-86
2021/06/28 10:55:23;;;;;;;35.47;22.08;;;;;;;21.84;84.12;98922.09;5051628;28;20098;-81
2021/06/28 10:58:25;;;;;;;36.45;23.02;;;;;;;21.71;84.31;98880.56;5028096;28;20127;-82
2021/06/28 11:01:15;;;;;;;23.02;15.60;;;;;;;21.75;84.28;98882.06;5030678;28;20053;-84
2021/06/28 11:04:24;;;;;;;21.60;13.98;;;;;;;21.66;83.18;98888.84;5030979;28;20056;-83
2021/06/28 11:07:15;;;;;;;16.45;12.45;;;;;;;21.21;82.90;98880.44;5030874;28;20108;-82
2021/06/28 11:10:00;;;;;;;26.17;19.10;;;;;;;21.01;84.19;98869.41;5030605;28;20088;-81
2021/06/28 11:12:46;;;;;;;21.15;16.70;;;;;;;21.35;84.42;98898.00;5015914;28;20056;-78
2021/06/28 11:15:31;;;;;;;16.13;14.02;;;;;;;21.26;83.86;98886.25;5015794;28;20512;-81
2021/06/28 11:18:30;;;;;;;34.85;21.85;;;;;;;21.25;84.52;98873.97;5018869;28;20528;-79
2021/06/28 11:21:38;;;;;;;16.95;13.43;;;;;;;21.29;83.57;98870.19;5015189;28;20537;-79
2021/06/28 11:24:10;;;;;;;19.33;14.27;;;;;;;21.45;84.43;98869.13;4995631;28;20041;-77
2021/06/28 11:26:37;;;;;;;25.10;19.42;;;;;;;21.58;85.23;98845.31;4995299;28;20049;-81
2021/06/28 11:29:52;;;;;;;16.73;13.57;;;;;;;21.83;84.80;98847.09;5132755;27;20430;-81
2021/06/28 11:33:04;;;;;;;25.05;18.95;;;;;;;22.13;84.78;98859.13;5132552;27;20138;-79
2021/06/28 11:35:50;;;;;;;22.13;17.00;;;;;;;22.32;85.47;98831.28;5133014;28;20030;-81
2021/06/28 11:38:27;;;;;;;19.08;13.57;;;;;;;22.44;85.27;98811.03;5131005;28;20039;-80
2021/06/28 11:41:16;;;;;;;20.58;13.13;;;;;;;22.66;84.73;98812.91;5113948;28;20027;-82
2021/06/28 11:44:25;;;;;;;19.25;14.40;;;;;;;22.82;85.03;98812.59;5110610;27;20405;-79
2021/06/28 11:47:45;;;;;;;23.38;13.52;;;;;;;23.05;84.85;98818.81;5190575;27;20410;-79
2021/06/28 11:50:40;;;;;;;15.85;11.70;;;;;;;23.37;85.39;98823.47;5129974;27;20504;-78
2021/06/28 11:53:57;;;;;;;16.65;14.43;;;;;;;23.62;85.15;98822.38;5149934;27;20437;-78
2021/06/28 11:56:56;;;;;;;12.68;11.35;;;;;;;23.92;84.62;98854.63;5195425;27;20954;-81
2021/06/28 11:59:50;;;;;;;13.02;11.20;;;;;;;24.04;84.13;98850.19;5053193;27;20442;-79
2021/06/28 12:02:41;;;;;;;15.27;11.10;;;;;;;24.12;84.06;98847.72;5102836;27;20975;-80
2021/06/28 12:05:33;;;;;;;14.45;10.52;;;;;;;24.21;83.67;98838.16;5112779;27;20358;-81
2021/06/28 12:08:26;;;;;;;15.45;11.40;;;;;;;24.33;83.52;98838.97;5048944;28;20926;-82
2021/06/28 12:11:20;;;;;;;12.10;10.30;;;;;;;24.35;83.06;98837.91;5089290;27;20419;-80